Time;durP1;ratioP1;P1;durP2;ratioP2;P2;SDS_P1;SDS_P2;PMS_P1;PMS_P2;Temp;Humidity;BMP_temperature;BMP_pressure;BME280_temperature;BME280_humidity;BME280_pressure;Samples;Min_cycle;Max_cycle;Signal;HPM_P1;HPM_P2
2022/07/12 00:01:04;;;;;;;4.38;1.60;;;17.40;99.90;;;;;;5030947;28;20232;-74
2022/07/12 00:03:29;;;;;;;1.63;1.50;;;17.30;99.90;;;;;;5030650;28;20187;-72
2022/07/12 00:05:56;;;;;;;3.20;1.48;;;17.20;99.90;;;;;;5030743;28;20699;-73
2022/07/12 00:08:22;;;;;;;3.22;1.60;;;17.20;99.90;;;;;;5030768;28;20654;-72
2022/07/12 00:10:47;;;;;;;1.83;1.65;;;17.20;99.90;;;;;;5031026;28;20205;-72
2022/07/12 00:13:13;;;;;;;1.60;1.50;;;17.20;99.90;;;;;;5030540;28;20189;-72
2022/07/12 00:15:38;;;;;;;1.60;1.50;;;17.20;99.90;;;;;;5030442;28;20220;-74
2022/07/12 00:18:04;;;;;;;3.90;1.58;;;17.10;99.90;;;;;;5033550;28;20261;-73
2022/07/12 00:20:29;;;;;;;1.55;1.45;;;17.20;99.90;;;;;;5033348;28;20649;-73
2022/07/12 00:22:55;;;;;;;1.45;1.35;;;17.10;99.90;;;;;;5033740;28;20193;-73
2022/07/12 00:25:21;;;;;;;1.50;1.40;;;17.10;99.90;;;;;;5033871;28;20183;-72
2022/07/12 00:27:46;;;;;;;2.20;1.70;;;17.10;99.90;;;;;;5033807;28;20277;-73
2022/07/12 00:30:12;;;;;;;1.70;1.60;;;17.10;99.90;;;;;;5032978;28;20272;-74
2022/07/12 00:32:38;;;;;;;1.77;1.50;;;17.10;99.90;;;;;;5016081;28;20194;-74
2022/07/12 00:35:05;;;;;;;2.65;1.70;;;17.10;99.90;;;;;;5033712;28;21132;-74
2022/07/12 00:37:31;;;;;;;2.75;1.83;;;17.00;99.90;;;;;;5033419;28;20182;-74
2022/07/12 00:39:57;;;;;;;2.42;1.50;;;17.00;99.90;;;;;;5033508;28;20291;-74
2022/07/12 00:42:23;;;;;;;1.50;1.40;;;17.00;99.90;;;;;;5033416;28;20189;-74
2022/07/12 00:44:48;;;;;;;2.05;1.50;;;17.00;99.90;;;;;;5033287;28;20170;-74
2022/07/12 00:47:33;;;;;;;1.75;1.30;;;16.90;99.90;;;;;;5033528;28;20184;-73
2022/07/12 00:49:59;;;;;;;1.40;1.30;;;16.90;99.90;;;;;;5013957;28;20220;-74
2022/07/12 00:52:25;;;;;;;2.25;1.58;;;16.80;99.90;;;;;;5033308;28;20265;-73
2022/07/12 00:54:50;;;;;;;1.45;1.35;;;16.80;99.90;;;;;;5033230;28;20351;-73
2022/07/12 00:57:16;;;;;;;1.40;1.30;;;16.80;99.90;;;;;;5033226;28;20186;-73
2022/07/12 00:59:41;;;;;;;1.50;1.40;;;16.80;99.90;;;;;;5032992;28;20185;-73
2022/07/12 01:02:07;;;;;;;1.58;1.40;;;16.80;99.90;;;;;;5033371;28;20174;-74
2022/07/12 01:04:35;;;;;;;1.75;1.52;;;16.80;99.90;;;;;;5015036;28;20693;-73
2022/07/12 01:07:01;;;;;;;1.60;1.50;;;16.80;99.90;;;;;;5033158;28;20188;-75
2022/07/12 01:09:27;;;;;;;2.22;1.80;;;16.80;99.90;;;;;;5031873;28;20619;-75
2022/07/12 01:11:53;;;;;;;1.45;1.35;;;16.80;99.90;;;;;;5032613;28;20548;-75
2022/07/12 01:14:19;;;;;;;1.77;1.33;;;16.70;99.90;;;;;;5032885;28;20210;-74
2022/07/12 01:16:45;;;;;;;1.45;1.35;;;16.70;99.90;;;;;;5032728;28;20769;-75
2022/07/12 01:19:20;;;;;;;1.38;1.27;;;16.70;99.90;;;;;;5032732;28;20201;-74
2022/07/12 01:21:48;;;;;;;1.70;1.60;;;16.70;99.90;;;;;;5032759;28;20182;-74
2022/07/12 01:24:15;;;;;;;1.30;1.20;;;16.70;99.90;;;;;;5015548;28;20192;-73
2022/07/12 01:26:41;;;;;;;1.35;1.25;;;16.60;99.90;;;;;;5031911;28;20277;-73
2022/07/12 01:29:08;;;;;;;1.58;1.48;;;16.60;99.90;;;;;;5030616;28;20178;-73
2022/07/12 01:31:35;;;;;;;1.70;1.60;;;16.60;99.90;;;;;;5032493;28;20525;-73
2022/07/12 01:34:02;;;;;;;2.42;1.73;;;16.60;99.90;;;;;;5032304;28;20673;-73
2022/07/12 01:36:28;;;;;;;1.67;1.52;;;16.60;99.90;;;;;;5032532;28;20194;-73
2022/07/12 01:38:54;;;;;;;1.50;1.40;;;16.60;99.90;;;;;;5032121;28;20186;-73
2022/07/12 01:41:19;;;;;;;1.55;1.45;;;16.50;99.90;;;;;;5032602;28;20190;-73
2022/07/12 01:43:45;;;;;;;1.40;1.30;;;16.60;99.90;;;;;;5032125;28;20240;-74
2022/07/12 01:46:10;;;;;;;1.67;1.58;;;16.50;99.90;;;;;;5032063;28;20269;-73
2022/07/12 01:48:37;;;;;;;1.65;1.55;;;16.50;99.90;;;;;;5032070;28;20201;-74
2022/07/12 01:51:03;;;;;;;2.10;1.70;;;16.50;99.90;;;;;;5031551;28;20265;-74
2022/07/12 01:53:29;;;;;;;1.60;1.50;;;16.40;99.90;;;;;;5031941;28;20190;-74
2022/07/12 01:55:54;;;;;;;1.92;1.63;;;16.40;99.90;;;;;;5021118;28;20205;-73
2022/07/12 01:58:20;;;;;;;1.60;1.50;;;16.40;99.90;;;;;;5032132;28;20492;-74
2022/07/12 02:00:51;;;;;;;1.45;1.40;;;16.40;99.90;;;;;;5031765;28;20186;-73
2022/07/12 02:03:17;;;;;;;1.85;1.30;;;16.40;99.90;;;;;;5031916;28;20178;-73
2022/07/12 02:05:43;;;;;;;4.88;1.50;;;16.40;99.90;;;;;;5031915;28;20185;-74
2022/07/12 02:08:08;;;;;;;1.75;1.48;;;16.40;99.90;;;;;;5031857;28;20186;-73
2022/07/12 02:10:34;;;;;;;1.73;1.63;;;16.40;99.90;;;;;;5014097;28;20625;-74
2022/07/12 02:13:03;;;;;;;1.63;1.52;;;16.40;99.90;;;;;;5031865;28;20193;-74
2022/07/12 02:15:28;;;;;;;1.50;1.40;;;16.30;99.90;;;;;;5031956;28;20217;-74
2022/07/12 02:17:54;;;;;;;1.52;1.42;;;16.30;99.90;;;;;;5031964;28;20182;-74
2022/07/12 02:20:19;;;;;;;1.70;1.60;;;16.30;99.90;;;;;;5013742;28;20185;-74
2022/07/12 02:22:45;;;;;;;1.60;1.50;;;16.40;99.90;;;;;;5031814;28;20264;-73
2022/07/12 02:25:11;;;;;;;1.55;1.45;;;16.40;99.90;;;;;;5031598;28;20308;-74
2022/07/12 02:27:39;;;;;;;1.40;1.30;;;16.40;99.90;;;;;;5022061;28;20228;-74
2022/07/12 02:30:05;;;;;;;2.00;1.60;;;16.40;99.90;;;;;;5031650;28;20182;-73
2022/07/12 02:32:30;;;;;;;1.75;1.65;;;16.40;99.90;;;;;;5030799;28;20269;-71
2022/07/12 02:34:56;;;;;;;1.88;1.60;;;16.40;99.90;;;;;;5031285;28;20301;-72
2022/07/12 02:37:22;;;;;;;3.20;1.40;;;16.40;99.90;;;;;;5031527;28;20182;-72
2022/07/12 02:39:47;;;;;;;1.50;1.30;;;16.40;99.90;;;;;;5031198;28;20225;-72
2022/07/12 02:42:13;;;;;;;1.38;1.27;;;16.40;99.90;;;;;;5030835;28;20193;-72
2022/07/12 02:44:39;;;;;;;1.58;1.48;;;16.40;99.90;;;;;;5030905;28;20182;-72
2022/07/12 02:47:05;;;;;;;1.40;1.40;;;16.40;99.90;;;;;;5031061;28;20178;-71
2022/07/12 02:49:30;;;;;;;1.48;1.38;;;16.40;99.90;;;;;;5013300;28;20602;-72
2022/07/12 02:51:56;;;;;;;2.40;1.60;;;16.40;99.90;;;;;;5031476;28;20228;-72
2022/07/12 02:54:21;;;;;;;1.40;1.30;;;16.30;99.90;;;;;;5030857;28;20224;-72
2022/07/12 02:56:47;;;;;;;1.58;1.48;;;16.30;99.90;;;;;;5031166;28;20178;-71
2022/07/12 02:59:12;;;;;;;1.63;1.52;;;16.20;99.90;;;;;;5031459;28;20186;-72
2022/07/12 03:01:38;;;;;;;1.95;1.40;;;16.20;99.90;;;;;;5030761;28;20186;-72
2022/07/12 03:04:03;;;;;;;2.22;1.60;;;16.20;99.90;;;;;;5031073;28;20593;-72
2022/07/12 03:06:29;;;;;;;1.40;1.30;;;16.20;99.90;;;;;;5031508;28;20186;-72
2022/07/12 03:08:54;;;;;;;1.80;1.38;;;16.20;99.90;;;;;;5031060;28;20557;-71
2022/07/12 03:11:20;;;;;;;4.07;1.58;;;16.20;99.90;;;;;;5030789;28;20273;-72
2022/07/12 03:13:45;;;;;;;1.65;1.55;;;16.20;99.90;;;;;;5030731;28;20209;-72
2022/07/12 03:16:11;;;;;;;1.77;1.52;;;16.20;99.90;;;;;;5030803;28;20653;-73
2022/07/12 03:18:39;;;;;;;1.60;1.50;;;16.10;99.90;;;;;;5030960;28;20209;-72
2022/07/12 03:21:05;;;;;;;1.58;1.48;;;16.10;99.90;;;;;;5030974;28;20197;-72
2022/07/12 03:23:30;;;;;;;1.35;1.30;;;16.10;99.90;;;;;;5031018;28;20645;-72
2022/07/12 03:25:56;;;;;;;1.90;1.67;;;16.00;99.90;;;;;;5031091;28;20533;-72
2022/07/12 03:28:22;;;;;;;1.35;1.23;;;16.00;99.90;;;;;;5031006;28;20223;-72
2022/07/12 03:30:47;;;;;;;1.50;1.40;;;16.00;99.90;;;;;;5029705;28;20224;-72
2022/07/12 03:33:13;;;;;;;1.63;1.40;;;16.00;99.90;;;;;;5030325;28;20190;-72
2022/07/12 03:35:38;;;;;;;1.48;1.25;;;16.00;99.90;;;;;;5030899;28;20594;-72
2022/07/12 03:38:04;;;;;;;2.60;1.45;;;16.00;99.90;;;;;;5030660;28;20174;-72
2022/07/12 03:40:31;;;;;;;1.40;1.30;;;16.00;99.90;;;;;;5030779;28;20230;-72
2022/07/12 03:42:58;;;;;;;1.45;1.35;;;15.90;99.90;;;;;;5030401;28;20183;-72
2022/07/12 03:45:24;;;;;;;1.40;1.30;;;15.90;99.90;;;;;;5030360;28;20182;-72
2022/07/12 03:47:49;;;;;;;1.50;1.35;;;15.90;99.90;;;;;;5030350;28;20186;-72
2022/07/12 03:50:15;;;;;;;1.42;1.20;;;16.00;99.90;;;;;;5024504;28;20198;-72
2022/07/12 03:52:42;;;;;;;1.65;1.40;;;16.00;99.90;;;;;;5034575;28;20648;-72
2022/07/12 03:55:09;;;;;;;1.60;1.50;;;16.00;99.90;;;;;;5034632;28;20749;-71
2022/07/12 03:57:34;;;;;;;1.50;1.40;;;16.00;99.90;;;;;;5034345;28;20174;-75
2022/07/12 04:00:00;;;;;;;1.65;1.45;;;15.90;99.90;;;;;;5034774;28;20323;-73
2022/07/12 04:02:25;;;;;;;1.50;1.40;;;16.00;99.90;;;;;;5032984;28;20637;-74
2022/07/12 04:04:52;;;;;;;3.63;1.50;;;15.90;99.90;;;;;;5032980;28;20541;-73
2022/07/12 04:07:18;;;;;;;2.00;1.80;;;15.90;99.90;;;;;;5031201;28;20676;-72
2022/07/12 04:09:43;;;;;;;1.17;1.17;;;15.90;99.90;;;;;;5025879;28;20261;-73
2022/07/12 04:12:09;;;;;;;1.77;1.55;;;15.90;99.90;;;;;;5024666;28;20205;-74
2022/07/12 04:14:35;;;;;;;2.80;1.55;;;15.90;99.90;;;;;;5033826;28;20677;-83
2022/07/12 04:17:01;;;;;;;1.42;1.33;;;15.90;99.90;;;;;;5034372;28;20247;-66
2022/07/12 04:19:31;;;;;;;2.95;1.40;;;16.00;99.90;;;;;;5034122;28;20186;-71
2022/07/12 04:21:57;;;;;;;1.20;1.20;;;16.00;99.90;;;;;;5034059;28;20190;-71
2022/07/12 04:24:23;;;;;;;1.70;1.30;;;16.00;99.90;;;;;;5030208;28;20273;-66
2022/07/12 04:26:48;;;;;;;1.60;1.50;;;16.10;99.90;;;;;;5021892;28;20194;-70
2022/07/12 04:29:18;;;;;;;1.90;1.80;;;16.20;99.90;;;;;;5033992;28;20500;-72
2022/07/12 04:31:44;;;;;;;1.60;1.45;;;16.30;99.90;;;;;;5029400;28;20232;-71
2022/07/12 04:34:10;;;;;;;1.38;1.30;;;16.60;99.90;;;;;;5022927;28;20610;-70
2022/07/12 04:36:35;;;;;;;1.40;1.30;;;16.90;99.90;;;;;;5026747;28;20215;-69
2022/07/12 04:39:01;;;;;;;1.75;1.42;;;17.20;99.90;;;;;;5027756;28;20202;-70
2022/07/12 04:41:27;;;;;;;4.03;1.30;;;17.60;99.90;;;;;;5014182;28;20179;-69
2022/07/12 04:43:52;;;;;;;1.50;1.40;;;18.00;99.90;;;;;;5031105;28;20236;-71
2022/07/12 04:46:18;;;;;;;2.15;1.33;;;18.50;99.90;;;;;;5033336;28;20244;-75
2022/07/12 04:48:43;;;;;;;1.42;1.20;;;18.90;99.90;;;;;;5033225;28;20221;-73
2022/07/12 04:51:09;;;;;;;1.30;1.20;;;19.40;99.90;;;;;;5033232;28;20594;-72
2022/07/12 04:53:35;;;;;;;1.90;1.55;;;19.80;99.90;;;;;;5032333;28;20234;-73
2022/07/12 04:56:00;;;;;;;7.07;1.48;;;20.20;99.90;;;;;;5032769;28;20252;-72
2022/07/12 04:58:26;;;;;;;1.40;1.30;;;20.60;99.90;;;;;;5033137;28;20235;-73
2022/07/12 05:00:51;;;;;;;2.55;1.10;;;21.00;99.90;;;;;;5033164;28;20625;-73
2022/07/12 05:03:17;;;;;;;1.70;1.27;;;21.30;99.90;;;;;;5014465;28;20272;-73
2022/07/12 05:05:43;;;;;;;1.20;1.20;;;21.70;99.90;;;;;;5033612;28;20535;-73
2022/07/12 05:08:09;;;;;;;1.40;1.30;;;22.00;99.60;;;;;;5033225;28;20189;-73
2022/07/12 05:10:35;;;;;;;1.83;1.65;;;22.50;98.60;;;;;;5031899;28;20190;-74
2022/07/12 05:13:01;;;;;;;1.50;1.40;;;22.80;97.70;;;;;;5032788;28;20194;-72
2022/07/12 05:15:26;;;;;;;1.25;1.15;;;23.20;97.10;;;;;;5033066;28;20213;-73
2022/07/12 05:17:51;;;;;;;1.88;1.05;;;23.60;96.10;;;;;;5015787;28;20638;-73
2022/07/12 05:20:17;;;;;;;1.38;1.27;;;23.90;95.30;;;;;;5015814;28;20174;-73
2022/07/12 05:22:42;;;;;;;3.90;1.60;;;24.30;94.60;;;;;;5033514;28;20178;-73
2022/07/12 05:25:08;;;;;;;2.10;1.20;;;24.60;94.00;;;;;;5033071;28;20188;-72
2022/07/12 05:27:34;;;;;;;2.70;1.30;;;24.90;93.10;;;;;;5033409;28;20186;-72
2022/07/12 05:30:00;;;;;;;2.13;1.20;;;25.30;92.20;;;;;;5032662;28;20589;-72
2022/07/12 05:32:26;;;;;;;3.72;1.17;;;25.60;91.50;;;;;;5033199;28;20182;-73
2022/07/12 05:34:51;;;;;;;1.45;1.30;;;26.00;90.50;;;;;;5033252;28;20260;-72
2022/07/12 05:37:17;;;;;;;1.50;1.02;;;26.30;89.30;;;;;;5033171;28;20178;-72
2022/07/12 05:39:42;;;;;;;1.45;1.27;;;26.60;87.10;;;;;;5032991;28;20248;-73
2022/07/12 05:42:08;;;;;;;1.25;1.20;;;26.80;85.40;;;;;;5033103;28;20174;-72
2022/07/12 05:44:34;;;;;;;3.10;1.38;;;27.00;84.60;;;;;;5033023;28;20645;-72
2022/07/12 05:46:59;;;;;;;1.05;1.05;;;27.40;84.60;;;;;;5032878;28;20224;-72
2022/07/12 05:49:25;;;;;;;1.20;1.10;;;27.80;81.60;;;;;;5033002;28;20185;-72
2022/07/12 05:54:35;;;;;;;1.48;1.20;;;28.60;77.10;;;;;;5032980;28;20303;-73
2022/07/12 05:57:00;;;;;;;1.08;1.08;;;29.00;75.10;;;;;;5033121;28;20174;-73
2022/07/12 05:59:28;;;;;;;1.73;1.10;;;29.30;73.40;;;;;;5033782;28;20178;-73
2022/07/12 06:01:53;;;;;;;1.80;1.50;;;29.70;71.30;;;;;;5032817;28;20232;-73
2022/07/12 06:04:19;;;;;;;1.08;1.00;;;30.10;70.10;;;;;;5032574;28;20178;-71
2022/07/12 06:06:44;;;;;;;0.95;0.77;;;30.30;67.90;;;;;;5032733;28;20251;-71
2022/07/12 06:09:10;;;;;;;0.80;0.80;;;30.60;66.80;;;;;;5032664;28;20210;-71
2022/07/12 06:11:35;;;;;;;0.88;0.80;;;31.00;65.30;;;;;;5032442;28;20185;-70
2022/07/12 06:14:01;;;;;;;0.80;0.80;;;31.40;63.90;;;;;;5031873;28;20314;-70
2022/07/12 06:16:26;;;;;;;0.80;0.80;;;31.70;61.90;;;;;;5032387;28;20849;-70
2022/07/12 06:18:52;;;;;;;0.70;0.70;;;32.10;60.70;;;;;;5032484;28;20178;-70
2022/07/12 06:21:17;;;;;;;0.77;0.70;;;32.40;59.10;;;;;;5032288;28;20178;-71
2022/07/12 06:23:43;;;;;;;0.70;0.70;;;32.60;57.90;;;;;;5032458;28;20193;-71
2022/07/12 06:26:08;;;;;;;2.40;0.63;;;32.70;57.10;;;;;;5032378;28;20724;-70
2022/07/12 06:28:34;;;;;;;0.60;0.60;;;32.70;56.90;;;;;;5032381;28;20261;-71
2022/07/12 06:31:01;;;;;;;0.50;0.50;;;32.70;56.50;;;;;;5032188;28;20176;-71
2022/07/12 06:33:26;;;;;;;1.95;0.60;;;32.70;56.10;;;;;;5032179;28;20640;-72
2022/07/12 06:35:52;;;;;;;0.82;0.70;;;32.60;56.00;;;;;;5014391;28;20226;-72
2022/07/12 06:38:17;;;;;;;0.60;0.60;;;32.70;56.20;;;;;;5014439;28;20177;-72
2022/07/12 06:40:43;;;;;;;0.55;0.55;;;32.90;55.20;;;;;;5032019;28;20257;-72
2022/07/12 06:43:13;;;;;;;0.80;0.80;;;33.10;54.60;;;;;;5032127;28;20573;-71
2022/07/12 06:45:39;;;;;;;1.17;0.75;;;33.30;54.90;;;;;;5032018;28;20166;-72
2022/07/12 06:48:05;;;;;;;0.93;0.90;;;33.90;54.10;;;;;;5031875;28;20200;-72
2022/07/12 06:50:31;;;;;;;2.88;0.90;;;34.40;52.60;;;;;;5031915;28;20347;-72
2022/07/12 06:52:57;;;;;;;0.98;0.50;;;34.70;52.00;;;;;;5032023;28;20182;-72
2022/07/12 06:55:23;;;;;;;0.60;0.60;;;34.90;50.40;;;;;;5031756;28;20694;-73
2022/07/12 06:57:49;;;;;;;0.65;0.65;;;35.10;50.10;;;;;;5014322;28;20173;-72
2022/07/12 07:00:14;;;;;;;0.63;0.63;;;35.10;50.00;;;;;;5031971;28;20173;-72
2022/07/12 07:02:40;;;;;;;0.93;0.50;;;35.10;50.00;;;;;;5031656;28;20180;-72
2022/07/12 07:05:06;;;;;;;0.60;0.60;;;35.20;49.40;;;;;;5032012;28;20181;-72
2022/07/12 07:07:32;;;;;;;0.80;0.70;;;35.20;48.70;;;;;;5031694;28;20591;-72
2022/07/12 07:09:57;;;;;;;0.60;0.60;;;35.00;48.60;;;;;;5014048;28;20185;-72
2022/07/12 07:12:23;;;;;;;0.70;0.70;;;34.90;49.20;;;;;;5031578;28;20173;-71
2022/07/12 07:14:49;;;;;;;0.50;0.50;;;35.00;49.40;;;;;;5031694;28;20213;-72
2022/07/12 07:17:19;;;;;;;0.98;0.70;;;35.30;48.60;;;;;;5031712;28;20173;-72
2022/07/12 07:19:45;;;;;;;0.85;0.85;;;35.40;48.50;;;;;;5031769;28;20181;-72
2022/07/12 07:22:11;;;;;;;0.70;0.55;;;35.60;47.80;;;;;;5031744;28;20181;-72
2022/07/12 07:24:37;;;;;;;0.60;0.60;;;35.70;47.60;;;;;;5031936;28;20173;-72
2022/07/12 07:27:03;;;;;;;0.52;0.52;;;36.10;46.90;;;;;;5035599;28;21017;-73
2022/07/12 07:32:13;;;;;;;0.40;0.40;;;36.10;45.30;;;;;;5035923;28;20246;-73
2022/07/12 07:34:38;;;;;;;0.30;0.30;;;35.80;45.90;;;;;;5035570;28;20299;-73
2022/07/12 07:37:04;;;;;;;0.65;0.28;;;35.70;45.00;;;;;;5035473;28;20579;-76
2022/07/12 07:39:30;;;;;;;0.30;0.30;;;35.60;45.60;;;;;;5017607;28;20226;-73
2022/07/12 07:41:55;;;;;;;0.40;0.40;;;35.50;44.70;;;;;;5035554;28;20714;-73
2022/07/12 07:44:21;;;;;;;0.65;0.30;;;35.30;45.20;;;;;;5035229;28;20185;-73
2022/07/12 07:46:46;;;;;;;0.30;0.30;;;35.50;44.80;;;;;;5035308;28;20541;-74
2022/07/12 07:49:12;;;;;;;0.50;0.20;;;34.90;44.20;;;;;;5035160;28;20236;-73
2022/07/12 07:51:38;;;;;;;0.30;0.30;;;34.50;45.50;;;;;;5035199;28;20174;-74
2022/07/12 07:54:03;;;;;;;0.43;0.20;;;34.30;46.50;;;;;;5035057;28;20244;-74
2022/07/12 07:56:29;;;;;;;0.98;0.25;;;34.50;45.90;;;;;;5035164;28;20184;-73
2022/07/12 07:58:55;;;;;;;1.38;0.35;;;34.50;45.80;;;;;;5035159;28;20659;-75
2022/07/12 08:01:20;;;;;;;1.13;0.30;;;34.40;44.90;;;;;;5034957;28;20177;-72
2022/07/12 08:03:46;;;;;;;0.20;0.20;;;34.00;46.00;;;;;;5034966;28;20574;-72
2022/07/12 08:06:11;;;;;;;0.57;0.30;;;34.00;45.80;;;;;;5034899;28;20227;-73
2022/07/12 08:08:37;;;;;;;0.40;0.40;;;34.10;45.90;;;;;;5034998;28;20181;-73
2022/07/12 08:11:03;;;;;;;0.43;0.43;;;34.20;45.30;;;;;;5034959;28;20540;-74
2022/07/12 08:13:29;;;;;;;1.17;0.40;;;34.10;45.20;;;;;;5034719;28;20216;-74
2022/07/12 08:15:54;;;;;;;0.88;0.28;;;34.10;45.20;;;;;;5034810;28;20704;-73
2022/07/12 08:18:20;;;;;;;0.30;0.30;;;34.30;45.50;;;;;;5034618;28;20170;-74
2022/07/12 08:20:45;;;;;;;0.50;0.38;;;34.30;44.50;;;;;;5034584;28;20178;-73
2022/07/12 08:23:11;;;;;;;0.28;0.28;;;34.20;45.10;;;;;;5034655;28;20173;-75
2022/07/12 08:25:37;;;;;;;0.25;0.25;;;34.30;44.50;;;;;;5034582;28;20173;-74
2022/07/12 08:28:03;;;;;;;0.63;0.32;;;34.40;43.90;;;;;;5034616;28;20281;-76
2022/07/12 08:30:28;;;;;;;2.05;0.57;;;34.60;43.70;;;;;;5034488;28;20178;-74
2022/07/12 08:32:57;;;;;;;2.85;0.57;;;34.60;44.80;;;;;;5034561;28;20188;-76
2022/07/12 08:35:23;;;;;;;0.50;0.28;;;34.60;44.40;;;;;;5034027;28;20213;-75
2022/07/12 08:37:48;;;;;;;0.43;0.20;;;34.70;43.70;;;;;;5034268;28;20178;-76
2022/07/12 08:40:14;;;;;;;0.65;0.35;;;34.80;44.40;;;;;;5034203;28;20622;-78
2022/07/12 08:42:43;;;;;;;0.22;0.22;;;34.70;42.20;;;;;;5034112;28;20178;-75
2022/07/12 08:45:09;;;;;;;0.85;0.25;;;33.80;43.00;;;;;;5034234;28;20201;-74
2022/07/12 08:47:35;;;;;;;0.40;0.40;;;33.00;44.50;;;;;;5034063;28;20221;-74
2022/07/12 08:50:10;;;;;;;0.13;0.13;;;31.90;46.00;;;;;;5034068;28;20581;-74
2022/07/12 08:52:48;;;;;;;0.10;0.10;;;31.50;48.40;;;;;;5034068;28;20201;-77
2022/07/12 08:55:28;;;;;;;0.20;0.20;;;31.20;46.90;;;;;;5034116;28;20692;-74
2022/07/12 08:57:55;;;;;;;0.13;0.13;;;30.80;47.10;;;;;;5034083;28;20170;-75
2022/07/12 09:00:22;;;;;;;0.85;0.40;;;30.00;48.30;;;;;;5033813;28;20182;-73
2022/07/12 09:02:53;;;;;;;0.73;0.40;;;29.50;50.20;;;;;;5033934;28;20171;-74
2022/07/12 09:05:23;;;;;;;0.28;0.25;;;29.60;51.00;;;;;;5033680;28;20178;-74
2022/07/12 09:07:50;;;;;;;0.30;0.30;;;29.60;50.30;;;;;;5033933;28;20257;-73
2022/07/12 09:10:16;;;;;;;0.20;0.20;;;29.50;50.60;;;;;;5033757;28;20198;-72
2022/07/12 09:12:43;;;;;;;0.20;0.20;;;29.50;50.60;;;;;;5033677;28;20189;-73
2022/07/12 09:15:14;;;;;;;0.30;0.08;;;29.40;50.50;;;;;;5032307;28;20249;-72
2022/07/12 09:17:41;;;;;;;0.28;0.20;;;29.40;51.50;;;;;;5033499;28;20189;-74
2022/07/12 09:20:10;;;;;;;1.17;0.35;;;29.80;50.90;;;;;;5033520;28;20178;-74
2022/07/12 09:22:35;;;;;;;0.73;0.22;;;30.10;50.30;;;;;;5033533;28;20273;-73
2022/07/12 09:25:18;;;;;;;0.30;0.30;;;30.30;50.10;;;;;;5033460;28;20264;-73
2022/07/12 09:27:49;;;;;;;2.92;0.45;;;30.60;49.80;;;;;;5033463;28;20186;-74
2022/07/12 09:30:14;;;;;;;0.47;0.30;;;30.80;49.00;;;;;;5033496;28;20166;-76
2022/07/12 09:36:06;;;;;;;0.65;0.30;;;31.00;48.00;;;;;;5033180;28;20623;-74
2022/07/12 09:38:54;;;;;;;0.60;0.60;;;31.10;48.50;;;;;;5033265;28;20175;-76
2022/07/12 09:41:21;;;;;;;0.30;0.30;;;31.40;50.10;;;;;;5033073;28;20197;-75
2022/07/12 09:43:50;;;;;;;0.57;0.38;;;31.60;49.10;;;;;;5033154;28;20184;-77
2022/07/12 09:46:16;;;;;;;0.30;0.30;;;31.60;47.00;;;;;;5015305;28;20178;-75
2022/07/12 09:48:44;;;;;;;0.30;0.20;;;31.30;47.60;;;;;;5032208;28;20678;-75
2022/07/12 09:51:13;;;;;;;0.98;0.30;;;31.10;48.00;;;;;;5033005;28;20182;-74
2022/07/12 09:53:44;;;;;;;1.75;0.30;;;31.30;48.00;;;;;;5033084;28;20178;-74
2022/07/12 09:56:14;;;;;;;0.30;0.30;;;31.20;48.50;;;;;;5032849;28;20668;-75
2022/07/12 09:58:47;;;;;;;0.40;0.40;;;31.40;48.90;;;;;;5032863;28;20692;-74
2022/07/12 10:01:15;;;;;;;0.45;0.30;;;31.80;50.00;;;;;;5032868;28;20225;-75
2022/07/12 10:03:42;;;;;;;0.38;0.38;;;32.00;48.70;;;;;;5032697;28;20277;-73
2022/07/12 10:06:09;;;;;;;0.40;0.40;;;32.40;48.30;;;;;;5032786;28;20178;-74
2022/07/12 10:08:35;;;;;;;0.55;0.30;;;32.80;47.00;;;;;;5032603;28;20178;-72
2022/07/12 10:11:01;;;;;;;1.27;0.30;;;33.00;45.90;;;;;;5014796;28;20578;-75
2022/07/12 10:13:28;;;;;;;0.70;0.40;;;32.70;45.70;;;;;;5032365;28;20205;-76
2022/07/12 10:16:00;;;;;;;2.28;0.38;;;32.50;45.80;;;;;;5032494;28;20213;-75
2022/07/12 10:18:26;;;;;;;0.40;0.40;;;32.10;45.90;;;;;;5032432;28;20189;-75
2022/07/12 10:20:51;;;;;;;0.98;0.13;;;32.10;46.30;;;;;;5032396;28;20508;-76
2022/07/12 10:23:20;;;;;;;0.40;0.28;;;32.20;46.40;;;;;;5032350;28;20174;-75
2022/07/12 10:25:48;;;;;;;0.30;0.25;;;32.20;46.30;;;;;;5032550;28;20182;-74
2022/07/12 10:28:13;;;;;;;0.20;0.20;;;31.90;46.60;;;;;;5032289;28;20269;-75
2022/07/12 10:30:43;;;;;;;0.30;0.30;;;31.50;47.60;;;;;;5032228;28;20222;-74
2022/07/12 10:33:22;;;;;;;1.00;0.60;;;31.40;47.90;;;;;;5032248;28;20189;-76
2022/07/12 10:36:08;;;;;;;0.20;0.20;;;31.30;48.00;;;;;;5032273;28;20221;-75
2022/07/12 10:38:34;;;;;;;0.50;0.40;;;31.30;50.20;;;;;;5032152;28;20182;-74
2022/07/12 10:41:19;;;;;;;0.82;0.32;;;31.40;48.50;;;;;;5031843;28;20315;-75
2022/07/12 10:44:04;;;;;;;1.10;1.10;;;31.60;48.00;;;;;;5032202;28;20170;-74
2022/07/12 10:46:30;;;;;;;0.77;0.77;;;31.80;48.80;;;;;;5031920;28;20182;-74
2022/07/12 10:49:27;;;;;;;0.30;0.30;;;31.90;47.00;;;;;;5031899;28;20708;-75
2022/07/12 10:52:11;;;;;;;0.30;0.30;;;31.70;47.50;;;;;;5031979;28;20205;-77
2022/07/12 10:54:47;;;;;;;0.50;0.40;;;31.60;47.30;;;;;;5032002;28;20297;-76
2022/07/12 10:57:13;;;;;;;0.88;0.68;;;31.50;48.70;;;;;;5031922;28;20185;-77
2022/07/12 10:59:38;;;;;;;0.45;0.40;;;31.20;49.30;;;;;;5031987;28;20189;-76
2022/07/12 11:02:05;;;;;;;0.50;0.50;;;31.30;48.10;;;;;;5031661;28;20174;-76
2022/07/12 11:04:30;;;;;;;6.40;0.52;;;31.60;49.10;;;;;;5031640;28;20190;-76
2022/07/12 11:07:00;;;;;;;0.88;0.60;;;31.80;49.40;;;;;;5031757;28;20194;-75
2022/07/12 11:09:28;;;;;;;1.55;0.43;;;32.10;47.70;;;;;;5031675;28;20239;-76
2022/07/12 11:11:54;;;;;;;2.47;0.43;;;32.20;46.60;;;;;;5031926;28;20253;-75
2022/07/12 11:14:23;;;;;;;1.20;0.43;;;32.10;46.50;;;;;;5031304;28;20225;-76
2022/07/12 11:16:52;;;;;;;0.77;0.40;;;32.00;47.20;;;;;;5031727;28;20177;-76
2022/07/12 11:19:22;;;;;;;0.50;0.50;;;32.00;48.40;;;;;;5031710;28;20206;-77
2022/07/12 11:21:54;;;;;;;0.40;0.40;;;32.20;46.80;;;;;;5031661;28;20603;-77
2022/07/12 11:24:27;;;;;;;0.25;0.25;;;32.20;46.70;;;;;;5031479;28;20236;-75
2022/07/12 11:26:53;;;;;;;0.35;0.35;;;31.90;46.50;;;;;;5031640;28;20205;-76
2022/07/12 11:29:19;;;;;;;0.38;0.38;;;31.70;47.40;;;;;;5031394;28;20178;-76
2022/07/12 11:31:45;;;;;;;1.45;0.40;;;31.80;48.50;;;;;;5031693;28;20186;-77
2022/07/12 11:34:29;;;;;;;0.95;0.30;;;32.00;48.40;;;;;;5031412;28;20684;-77
2022/07/12 11:36:56;;;;;;;0.50;0.40;;;32.40;47.50;;;;;;5031604;28;20186;-77
2022/07/12 11:39:40;;;;;;;0.50;0.50;;;32.60;47.20;;;;;;5031226;28;20229;-79
2022/07/12 11:42:07;;;;;;;0.40;0.40;;;32.80;46.40;;;;;;5031607;28;20190;-78
2022/07/12 11:44:43;;;;;;;0.80;0.40;;;32.80;46.20;;;;;;5031287;28;20595;-79
2022/07/12 11:47:09;;;;;;;0.30;0.30;;;33.00;45.40;;;;;;5013654;28;20213;-77
2022/07/12 11:49:34;;;;;;;0.40;0.40;;;33.10;45.60;;;;;;5031461;28;20216;-78
2022/07/12 11:52:00;;;;;;;0.35;0.35;;;33.10;46.20;;;;;;5031424;28;20571;-78
2022/07/12 11:54:25;;;;;;;0.35;0.28;;;33.10;46.00;;;;;;5031186;28;20592;-79
2022/07/12 11:57:13;;;;;;;0.25;0.22;;;33.20;44.80;;;;;;5031274;28;20190;-76
2022/07/12 11:59:39;;;;;;;0.57;0.38;;;33.10;44.00;;;;;;5031389;28;20182;-78
2022/07/12 12:02:13;;;;;;;0.30;0.30;;;33.00;44.50;;;;;;5031193;28;20642;-78
2022/07/12 12:04:54;;;;;;;0.43;0.40;;;32.70;45.50;;;;;;5031374;28;20192;-77
2022/07/12 12:07:22;;;;;;;0.70;0.50;;;32.60;46.30;;;;;;5031074;28;20228;-78
2022/07/12 12:10:13;;;;;;;2.88;0.50;;;32.40;47.10;;;;;;5031325;28;20174;-76
2022/07/12 12:12:51;;;;;;;0.90;0.30;;;32.40;45.60;;;;;;5013276;28;20297;-76
2022/07/12 12:15:23;;;;;;;1.58;0.32;;;32.60;45.90;;;;;;5015079;28;20268;-81
2022/07/12 12:17:59;;;;;;;0.30;0.28;;;32.70;45.30;;;;;;5014838;28;20237;-77
2022/07/12 12:20:36;;;;;;;0.68;0.50;;;32.40;45.80;;;;;;5020919;28;20174;-77
2022/07/12 12:23:04;;;;;;;0.50;0.50;;;32.50;46.20;;;;;;5034564;28;20174;-80
2022/07/12 12:25:31;;;;;;;2.20;0.52;;;32.60;45.90;;;;;;5034667;28;20257;-79
2022/07/12 12:28:06;;;;;;;0.40;0.40;;;32.60;45.90;;;;;;5034716;28;20277;-80
2022/07/12 12:30:33;;;;;;;0.50;0.32;;;32.20;45.60;;;;;;5034509;28;20210;-77
2022/07/12 12:33:01;;;;;;;0.40;0.20;;;31.90;46.00;;;;;;5034322;28;20668;-79
2022/07/12 12:35:37;;;;;;;1.67;0.30;;;31.70;46.20;;;;;;5034239;28;20217;-77
2022/07/12 12:38:13;;;;;;;2.45;0.50;;;31.50;46.90;;;;;;5034058;28;20678;-76
2022/07/12 12:40:39;;;;;;;1.85;0.40;;;31.60;46.80;;;;;;5034129;28;20256;-80
2022/07/12 12:43:07;;;;;;;2.55;0.40;;;31.70;46.70;;;;;;5034298;28;20170;-76
2022/07/12 12:45:33;;;;;;;0.32;0.32;;;31.90;46.50;;;;;;5034156;28;20188;-77
2022/07/12 12:48:08;;;;;;;1.55;0.40;;;31.90;46.40;;;;;;5033905;28;20591;-79
2022/07/12 12:50:37;;;;;;;1.50;0.32;;;31.90;46.10;;;;;;5034194;28;20231;-77
2022/07/12 12:53:22;;;;;;;0.40;0.38;;;31.70;47.10;;;;;;5034067;28;20171;-79
2022/07/12 12:55:50;;;;;;;0.25;0.25;;;31.70;46.90;;;;;;5034012;28;20306;-76
2022/07/12 12:58:17;;;;;;;1.10;0.32;;;31.70;46.80;;;;;;5016367;28;20234;-77